SBOSBO ALC / LEAL
Speedbird OnlineSpeedbird Online ALC / LEAL

Alicante International Airport
21:31 24°C

Location Alicante, Spain
Latitude: 38.28219985961914
Longitude: -0.5581560134887695
Web Airport Website | Wikipedia
Altitude 43 Meter / 142 Feet
Distance 1,471 KM / 914 Miles
from London.
Time Zone UTC +2 hours (Europe/Madrid)
Codes IATA: ALC
ICAO: LEAL
Currency £1 equals EUR 1.12
Runways
RunwayLength (m)Surface
103000Asphalt
283000Asphalt
Radio
TypeDescriptionFrequency
APPAPP118.8
ATISATIS113.8
GNDGND121.7
TWRTWR118.15
Live ATC
METAR LEAL 241900Z 02005KT 340V070 9999 FEW040 24/18 Q1009 NOSIG
TAF TAF AMD LEAL 241758Z 2418/2518 05008KT 9999 FEW020 TX25/2512Z TN18/2506Z TEMPO 2418/2420 SHRA FEW035TCU PROB30 TEMPO 2418/2420 3000 TSRA FEW030CB PROB30 TEMPO 2508/2518 3000 TSRA FEW030CB TEMPO 2510/2517 07020G30KT
Weather As Of 24 Sep 2022 21:31
Description Few clouds
Wind 9 km/h from North (20°)
Cloud Cover 20%
Precipitation Rain: none, Snow: none
Sunrise 07:51
Sunset 19:57
Lounges Sala Costa Blanca, Maiin Terminal
AENA Sala VIP , Main Terminal
Rotations During the last 90 days there were
106 flights from LGW
12 flights from SOU
1 flights from LHR
106 flights to LGW
12 flights to SOU
1 flights to BCN


© 2017-2022 Speedbird Online